createdAt,value
2018-09-20T00:02:15.821Z,6.30
2018-09-20T00:04:43.004Z,6.20
2018-09-20T00:07:10.177Z,6.93
2018-09-20T00:09:37.379Z,5.97
2018-09-20T00:12:04.563Z,6.37
2018-09-20T00:14:31.749Z,6.20
2018-09-20T00:17:36.965Z,5.87
2018-09-20T00:20:05.220Z,6.60
2018-09-20T00:22:32.350Z,6.30
2018-09-20T00:24:59.551Z,6.67
2018-09-20T00:27:26.728Z,5.73
2018-09-20T00:29:53.929Z,6.93
2018-09-20T00:32:21.096Z,5.97
2018-09-20T00:34:48.264Z,7.10
2018-09-20T00:37:15.483Z,7.07
2018-09-20T00:39:42.642Z,6.40
2018-09-20T00:42:09.837Z,5.50
2018-09-20T00:44:37.033Z,6.00
2018-09-20T00:47:04.328Z,6.40
2018-09-20T00:49:31.531Z,6.70
2018-09-20T00:51:58.685Z,6.90
2018-09-20T00:54:25.888Z,6.10
2018-09-20T00:56:53.040Z,6.43
2018-09-20T00:59:20.224Z,6.30
2018-09-20T01:01:47.430Z,6.10
2018-09-20T01:04:14.641Z,6.87
2018-09-20T01:06:41.821Z,5.87
2018-09-20T01:09:10.239Z,6.70
2018-09-20T01:11:37.767Z,5.93
2018-09-20T01:14:05.135Z,7.23
2018-09-20T01:16:32.339Z,7.50
2018-09-20T01:18:59.777Z,6.17
2018-09-20T01:21:26.957Z,6.43
2018-09-20T01:23:54.154Z,5.93
2018-09-20T01:26:21.355Z,6.00
2018-09-20T01:28:48.557Z,5.30
2018-09-20T01:31:15.769Z,6.00
2018-09-20T01:33:42.896Z,6.67
2018-09-20T01:36:10.035Z,7.20
2018-09-20T01:38:37.176Z,5.70
2018-09-20T01:41:04.359Z,5.33
2018-09-20T01:43:31.909Z,5.70
2018-09-20T01:45:59.104Z,7.60
2018-09-20T01:48:26.298Z,6.50
2018-09-20T01:50:53.524Z,5.70
2018-09-20T01:53:20.691Z,6.47
2018-09-20T01:55:47.880Z,6.00
2018-09-20T01:58:15.101Z,6.63
2018-09-20T02:00:42.257Z,7.30
2018-09-20T02:03:09.418Z,6.60
2018-09-20T02:05:36.660Z,5.93
2018-09-20T02:08:03.832Z,5.90
2018-09-20T02:10:31.012Z,5.70
2018-09-20T02:12:58.273Z,6.00
2018-09-20T02:15:25.492Z,5.53
2018-09-20T02:17:52.701Z,6.37
2018-09-20T02:20:19.974Z,6.30
2018-09-20T02:22:47.148Z,6.40
2018-09-20T02:25:14.292Z,6.20
2018-09-20T02:27:41.469Z,5.33
2018-09-20T02:30:08.616Z,7.10
2018-09-20T02:32:35.819Z,6.63
2018-09-20T02:35:04.015Z,6.83
2018-09-20T02:37:31.194Z,5.80
2018-09-20T02:39:58.361Z,6.20
2018-09-20T02:42:25.532Z,5.77
2018-09-20T02:44:52.702Z,6.17
2018-09-20T02:47:19.936Z,5.83
2018-09-20T02:49:47.147Z,5.63
2018-09-20T02:52:14.326Z,5.73
2018-09-20T02:54:41.522Z,5.53
2018-09-20T02:57:08.748Z,7.47
2018-09-20T02:59:35.869Z,5.70
2018-09-20T03:02:03.049Z,7.30
2018-09-20T03:04:30.221Z,6.03
2018-09-20T03:06:57.353Z,5.50
2018-09-20T03:09:24.573Z,6.27
2018-09-20T03:11:51.812Z,5.27
2018-09-20T03:14:18.967Z,6.03
2018-09-20T03:16:46.152Z,5.87
2018-09-20T03:19:13.372Z,5.70
2018-09-20T03:21:40.544Z,5.80
2018-09-20T03:24:07.717Z,5.60
2018-09-20T03:26:34.962Z,5.93
2018-09-20T03:29:02.136Z,5.33
2018-09-20T03:31:29.317Z,7.07
2018-09-20T03:33:56.497Z,5.60
2018-09-20T03:36:23.657Z,6.13
2018-09-20T03:38:50.844Z,5.93
2018-09-20T03:41:18.008Z,6.40
2018-09-20T03:43:45.201Z,5.83
2018-09-20T03:46:12.496Z,6.00
2018-09-20T03:48:39.692Z,5.30
2018-09-20T03:51:06.950Z,6.20
2018-09-20T03:53:34.074Z,5.83
2018-09-20T03:56:01.235Z,7.67
2018-09-20T03:58:28.413Z,6.63
2018-09-20T04:00:55.639Z,6.10
2018-09-20T04:03:22.818Z,5.20
2018-09-20T04:05:50.025Z,7.30
2018-09-20T04:08:17.324Z,6.27
2018-09-20T04:10:44.468Z,5.77
2018-09-20T04:13:11.676Z,5.87
2018-09-20T04:15:38.927Z,6.10
2018-09-20T04:18:06.214Z,5.63
2018-09-20T04:20:33.382Z,6.13
2018-09-20T04:23:00.539Z,6.40
2018-09-20T04:25:27.691Z,6.40
2018-09-20T04:27:54.889Z,7.03
2018-09-20T04:30:22.077Z,5.80
2018-09-20T04:32:49.298Z,6.40
2018-09-20T04:35:16.471Z,5.67
2018-09-20T04:37:43.624Z,5.80
2018-09-20T04:40:10.792Z,6.17
2018-09-20T04:42:38.045Z,6.20
2018-09-20T04:45:05.786Z,6.93
2018-09-20T04:47:32.937Z,7.30
2018-09-20T04:50:00.155Z,6.33
2018-09-20T04:52:27.328Z,5.33
2018-09-20T04:54:54.490Z,6.93
2018-09-20T04:57:21.648Z,4.60
2018-09-20T04:59:48.846Z,6.60
2018-09-20T05:02:16.041Z,5.73
2018-09-20T05:04:43.193Z,5.63
2018-09-20T05:07:10.376Z,5.73
2018-09-20T05:09:37.635Z,6.60
2018-09-20T05:12:04.761Z,5.40
2018-09-20T05:14:31.952Z,5.60
2018-09-20T05:16:59.116Z,5.63
2018-09-20T05:19:26.305Z,6.00
2018-09-20T05:21:53.469Z,5.90
2018-09-20T05:24:20.635Z,5.87
2018-09-20T05:26:47.796Z,6.20
2018-09-20T05:29:15.203Z,6.67
2018-09-20T05:31:42.549Z,5.60
2018-09-20T05:34:09.716Z,6.77
2018-09-20T05:36:36.847Z,6.20
2018-09-20T05:39:06.392Z,5.90
2018-09-20T05:41:33.613Z,6.37
2018-09-20T05:44:00.841Z,6.50
2018-09-20T05:46:28.000Z,6.93
2018-09-20T05:48:55.183Z,6.03
2018-09-20T05:51:22.325Z,7.23
2018-09-20T05:53:49.539Z,6.00
2018-09-20T05:56:16.692Z,7.40
2018-09-20T05:58:43.870Z,7.40
2018-09-20T06:01:11.040Z,7.17
2018-09-20T06:03:38.200Z,6.93
2018-09-20T06:06:05.404Z,6.27
2018-09-20T06:08:32.564Z,6.77
2018-09-20T06:10:59.738Z,6.60
2018-09-20T06:13:26.901Z,7.83
2018-09-20T06:15:54.079Z,8.03
2018-09-20T06:18:21.308Z,6.90
2018-09-20T06:20:48.419Z,7.13
2018-09-20T06:23:15.672Z,7.40
2018-09-20T06:25:43.022Z,7.70
2018-09-20T06:28:10.228Z,7.50
2018-09-20T06:30:37.484Z,7.37
2018-09-20T06:33:04.706Z,7.33
2018-09-20T06:35:32.644Z,7.50
2018-09-20T06:37:59.787Z,9.20
2018-09-20T06:40:26.906Z,9.80
2018-09-20T06:42:54.055Z,10.07
2018-09-20T06:45:21.198Z,10.20
2018-09-20T06:47:48.372Z,9.70
2018-09-20T06:50:16.288Z,10.10
2018-09-20T06:52:43.412Z,10.73
2018-09-20T06:55:10.797Z,10.07
2018-09-20T06:57:37.980Z,10.63
2018-09-20T07:00:06.664Z,10.43
2018-09-20T07:02:34.301Z,11.47
2018-09-20T07:05:01.653Z,11.13
2018-09-20T07:07:28.990Z,11.27
2018-09-20T07:09:56.180Z,11.97
2018-09-20T07:12:23.360Z,11.80
2018-09-20T07:14:50.520Z,11.83
2018-09-20T07:17:17.693Z,13.57
2018-09-20T07:19:44.916Z,11.37
2018-09-20T07:22:12.116Z,12.73
2018-09-20T07:24:39.372Z,12.70
2018-09-20T07:27:06.656Z,12.10
2018-09-20T07:29:33.808Z,13.10
2018-09-20T07:32:01.244Z,13.97
2018-09-20T07:34:28.436Z,13.37
2018-09-20T07:36:55.571Z,12.17
2018-09-20T07:39:22.741Z,12.97
2018-09-20T07:41:49.892Z,12.23
2018-09-20T07:44:17.120Z,12.90
2018-09-20T07:46:44.276Z,12.27
2018-09-20T07:49:11.460Z,11.63
2018-09-20T07:51:38.619Z,11.73
2018-09-20T07:54:05.809Z,12.30
2018-09-20T07:56:33.040Z,12.30
2018-09-20T07:59:00.173Z,11.87
2018-09-20T08:01:27.412Z,12.50
2018-09-20T08:03:54.569Z,12.40
2018-09-20T08:06:21.870Z,12.00
2018-09-20T08:08:49.359Z,12.30
2018-09-20T08:11:16.544Z,12.43
2018-09-20T08:13:44.057Z,12.43
2018-09-20T08:16:11.258Z,12.27
2018-09-20T08:18:38.464Z,12.53
2018-09-20T08:21:05.750Z,12.83
2018-09-20T08:23:32.949Z,10.23
2018-09-20T08:26:00.188Z,11.37
2018-09-20T08:28:34.172Z,11.17
2018-09-20T08:31:01.335Z,10.90
2018-09-20T08:33:28.616Z,10.57
2018-09-20T08:35:55.793Z,10.70
2018-09-20T08:38:22.912Z,13.83
2018-09-20T08:40:50.089Z,12.30
2018-09-20T08:43:17.248Z,10.67
2018-09-20T08:45:44.434Z,10.40
2018-09-20T08:48:11.608Z,9.20
2018-09-20T08:50:38.775Z,10.47
2018-09-20T08:53:06.149Z,10.00
2018-09-20T08:55:33.329Z,9.37
2018-09-20T08:58:00.532Z,9.40
2018-09-20T09:00:27.701Z,10.50
2018-09-20T09:02:54.957Z,11.17
2018-09-20T09:05:22.187Z,10.53
2018-09-20T09:07:49.368Z,11.90
2018-09-20T09:10:16.532Z,9.47
2018-09-20T09:12:43.664Z,10.10
2018-09-20T09:15:11.028Z,10.80
2018-09-20T09:17:38.232Z,10.63
2018-09-20T09:20:05.647Z,10.90
2018-09-20T09:22:32.837Z,8.93
2018-09-20T09:25:00.020Z,8.77
2018-09-20T09:27:27.271Z,9.00
2018-09-20T09:29:54.462Z,8.93
2018-09-20T09:32:21.693Z,8.73
2018-09-20T09:34:48.905Z,8.70
2018-09-20T09:37:16.496Z,9.80
2018-09-20T09:39:43.646Z,8.97
2018-09-20T09:42:10.878Z,9.03
2018-09-20T09:44:38.049Z,8.43
2018-09-20T09:47:05.177Z,9.33
2018-09-20T09:49:32.380Z,8.83
2018-09-20T09:51:59.552Z,8.40
2018-09-20T09:54:26.793Z,9.23
2018-09-20T09:56:53.978Z,8.33
2018-09-20T09:59:21.168Z,8.70
2018-09-20T10:01:48.285Z,7.53
2018-09-20T10:04:15.480Z,8.90
2018-09-20T10:06:42.652Z,8.27
2018-09-20T10:09:10.741Z,7.70
2018-09-20T10:11:37.981Z,7.57
2018-09-20T10:14:05.176Z,7.80
2018-09-20T10:16:32.573Z,8.40
2018-09-20T10:18:59.795Z,8.03
2018-09-20T10:21:26.956Z,8.13
2018-09-20T10:23:54.211Z,8.17
2018-09-20T10:26:21.356Z,7.70
2018-09-20T10:28:48.564Z,7.83
2018-09-20T10:31:15.743Z,8.30
2018-09-20T10:33:43.034Z,8.20
2018-09-20T10:36:10.287Z,7.10
2018-09-20T10:38:37.441Z,8.23
2018-09-20T10:41:04.661Z,8.53
2018-09-20T10:43:31.819Z,7.60
2018-09-20T10:45:58.988Z,8.20
2018-09-20T10:48:26.183Z,6.87
2018-09-20T10:50:53.356Z,6.80
2018-09-20T10:53:20.529Z,7.30
2018-09-20T10:55:47.779Z,7.47
2018-09-20T10:58:14.899Z,8.00
2018-09-20T11:00:42.091Z,8.27
2018-09-20T11:03:09.441Z,7.87
2018-09-20T11:05:36.581Z,6.97
2018-09-20T11:08:03.780Z,7.27
2018-09-20T11:10:31.002Z,7.70
2018-09-20T11:12:58.124Z,7.07
2018-09-20T11:15:25.352Z,7.40
2018-09-20T11:17:53.707Z,6.93
2018-09-20T11:20:20.949Z,8.33
2018-09-20T11:22:48.064Z,7.47
2018-09-20T11:25:15.228Z,7.10
2018-09-20T11:27:42.847Z,8.73
2018-09-20T11:30:10.037Z,8.43
2018-09-20T11:32:37.216Z,7.60
2018-09-20T11:35:04.687Z,8.23
2018-09-20T11:37:31.891Z,6.63
2018-09-20T11:39:59.060Z,7.80
2018-09-20T11:42:26.232Z,7.60
2018-09-20T11:44:53.388Z,7.47
2018-09-20T11:47:20.557Z,7.70
2018-09-20T11:49:47.717Z,7.17
2018-09-20T11:52:14.827Z,7.60
2018-09-20T11:54:41.954Z,7.97
2018-09-20T11:57:09.219Z,8.67
2018-09-20T11:59:36.499Z,7.77
2018-09-20T12:02:03.824Z,6.23
2018-09-20T12:04:30.941Z,7.10
2018-09-20T12:06:58.133Z,6.20
2018-09-20T12:09:25.301Z,7.17
2018-09-20T12:11:52.469Z,7.30
2018-09-20T12:14:19.723Z,7.20
2018-09-20T12:16:46.896Z,7.67
2018-09-20T12:19:14.053Z,7.40
2018-09-20T12:21:41.218Z,7.30
2018-09-20T12:24:08.368Z,7.70
2018-09-20T12:26:35.564Z,6.80
2018-09-20T12:29:02.759Z,6.10
2018-09-20T12:31:30.055Z,6.47
2018-09-20T12:33:57.301Z,7.33
2018-09-20T12:36:24.510Z,6.43
2018-09-20T12:38:51.709Z,6.57
2018-09-20T12:41:18.891Z,6.40
2018-09-20T12:43:46.029Z,7.03
2018-09-20T12:46:13.204Z,6.30
2018-09-20T12:48:40.383Z,5.60
2018-09-20T12:51:08.044Z,6.93
2018-09-20T12:53:35.205Z,6.47
2018-09-20T12:56:02.392Z,6.50
2018-09-20T12:58:37.245Z,9.20
2018-09-20T13:01:04.481Z,6.70
2018-09-20T13:03:31.644Z,7.03
2018-09-20T13:05:58.863Z,6.90
2018-09-20T13:08:26.064Z,6.50
2018-09-20T13:10:53.271Z,6.43
2018-09-20T13:13:20.529Z,6.47
2018-09-20T13:15:48.108Z,5.53
2018-09-20T13:18:15.314Z,6.87
2018-09-20T13:20:42.528Z,6.40
2018-09-20T13:23:10.276Z,6.10
2018-09-20T13:25:37.739Z,6.57
2018-09-20T13:28:04.925Z,5.40
2018-09-20T13:30:32.165Z,6.07
2018-09-20T13:32:59.431Z,6.13
2018-09-20T13:35:26.652Z,5.40
2018-09-20T13:37:53.868Z,5.60
2018-09-20T13:40:21.060Z,6.63
2018-09-20T13:42:48.271Z,5.40
2018-09-20T13:45:15.467Z,5.67
2018-09-20T13:47:42.614Z,5.50
2018-09-20T13:50:09.830Z,5.90
2018-09-20T13:52:36.980Z,6.37
2018-09-20T13:55:04.592Z,5.93
2018-09-20T13:57:31.723Z,5.70
2018-09-20T13:59:59.020Z,5.57
2018-09-20T14:02:26.159Z,5.80
2018-09-20T14:04:53.452Z,6.00
2018-09-20T14:07:20.619Z,5.80
2018-09-20T14:09:47.811Z,5.30
2018-09-20T14:12:15.000Z,5.70
2018-09-20T14:14:42.163Z,5.70
2018-09-20T14:17:09.327Z,6.10
2018-09-20T14:19:36.493Z,5.90
2018-09-20T14:22:03.669Z,5.60
2018-09-20T14:24:30.847Z,4.90
2018-09-20T14:26:58.042Z,5.00
2018-09-20T14:29:25.238Z,5.33
2018-09-20T14:31:52.429Z,6.57
2018-09-20T14:34:19.605Z,5.30
2018-09-20T14:36:46.876Z,5.83
2018-09-20T14:39:14.084Z,6.00
2018-09-20T14:41:41.315Z,5.70
2018-09-20T14:44:08.536Z,4.90
2018-09-20T14:46:35.745Z,6.07
2018-09-20T14:49:03.032Z,5.93
2018-09-20T14:51:30.565Z,5.43
2018-09-20T14:53:57.782Z,5.27
2018-09-20T14:56:25.094Z,5.80
2018-09-20T14:58:52.282Z,5.43
2018-09-20T15:01:19.508Z,6.10
2018-09-20T15:03:46.690Z,5.90
2018-09-20T15:06:13.906Z,5.17
2018-09-20T15:08:41.133Z,5.90
2018-09-20T15:11:08.336Z,6.07
2018-09-20T15:13:35.628Z,6.20
2018-09-20T15:16:02.840Z,6.40
2018-09-20T15:18:30.070Z,5.53
2018-09-20T15:20:57.288Z,5.43
2018-09-20T15:23:24.508Z,5.73
2018-09-20T15:25:51.746Z,5.50
2018-09-20T15:28:18.988Z,6.10
2018-09-20T15:30:46.290Z,5.60
2018-09-20T15:33:13.585Z,5.30
2018-09-20T15:35:40.841Z,6.37
2018-09-20T15:38:13.302Z,4.70
2018-09-20T15:40:40.548Z,5.80
2018-09-20T15:43:08.068Z,7.03
2018-09-20T15:45:35.275Z,6.37
2018-09-20T15:48:02.527Z,5.93
2018-09-20T15:50:29.752Z,6.07
2018-09-20T15:52:56.984Z,6.20
2018-09-20T15:55:24.310Z,6.03
2018-09-20T15:57:51.573Z,6.07
2018-09-20T16:00:18.820Z,5.93
2018-09-20T16:02:46.037Z,6.00
2018-09-20T16:05:13.253Z,6.03
2018-09-20T16:07:40.457Z,4.73
2018-09-20T16:10:07.738Z,5.20
2018-09-20T16:12:34.960Z,5.57
2018-09-20T16:15:02.320Z,6.00
2018-09-20T16:17:29.580Z,6.00
2018-09-20T16:19:56.862Z,5.67
2018-09-20T16:22:24.110Z,5.80
2018-09-20T16:24:51.385Z,5.67
2018-09-20T16:27:18.677Z,5.33
2018-09-20T16:30:08.041Z,6.17
2018-09-20T16:33:53.708Z,6.00
2018-09-20T16:36:34.442Z,5.93
2018-09-20T16:39:09.061Z,6.23
2018-09-20T16:41:39.629Z,6.10
2018-09-20T16:44:06.932Z,5.60
2018-09-20T16:46:34.157Z,6.20
2018-09-20T16:49:01.385Z,6.30
2018-09-20T16:51:28.561Z,5.80
2018-09-20T16:53:55.877Z,6.93
2018-09-20T16:56:23.149Z,6.17
2018-09-20T16:58:51.812Z,7.20
2018-09-20T17:01:19.932Z,9.30
2018-09-20T17:03:47.498Z,9.10
2018-09-20T17:06:14.856Z,9.60
2018-09-20T17:08:42.105Z,7.13
2018-09-20T17:11:09.348Z,7.47
2018-09-20T17:13:36.605Z,5.90
2018-09-20T17:16:03.927Z,6.43
2018-09-20T17:18:31.158Z,7.03
2018-09-20T17:20:58.404Z,6.90
2018-09-20T17:23:25.658Z,7.03
2018-09-20T17:25:52.880Z,7.07
2018-09-20T17:28:20.181Z,6.27
2018-09-20T17:30:47.394Z,6.53
2018-09-20T17:33:14.620Z,6.00
2018-09-20T17:35:42.264Z,6.27
2018-09-20T17:38:10.263Z,6.73
2018-09-20T17:40:38.936Z,6.17
2018-09-20T17:43:08.834Z,6.43
2018-09-20T17:45:36.066Z,6.40
2018-09-20T17:48:03.344Z,6.03
2018-09-20T17:50:30.614Z,7.10
2018-09-20T17:52:58.308Z,7.80
2018-09-20T17:55:26.114Z,7.73
2018-09-20T17:57:53.832Z,6.30
2018-09-20T18:00:23.159Z,7.70
2018-09-20T18:02:50.916Z,7.53
2018-09-20T18:05:18.851Z,6.93
2018-09-20T18:07:46.093Z,7.50
2018-09-20T18:10:15.155Z,7.30
2018-09-20T18:12:42.813Z,6.77
2018-09-20T18:15:10.284Z,6.57
2018-09-20T18:17:37.541Z,7.63
2018-09-20T18:20:04.909Z,7.60
2018-09-20T18:22:32.151Z,7.07
2018-09-20T18:24:59.421Z,7.33
2018-09-20T18:27:27.125Z,7.60
2018-09-20T18:29:54.377Z,7.57
2018-09-20T18:32:21.615Z,8.03
2018-09-20T18:34:48.909Z,8.03
2018-09-20T18:37:16.362Z,9.57
2018-09-20T18:39:43.635Z,9.87
2018-09-20T18:42:10.925Z,8.47
2018-09-20T18:44:38.232Z,8.57
2018-09-20T18:47:05.845Z,7.20
2018-09-20T18:49:34.324Z,8.57
2018-09-20T18:52:01.599Z,8.00
2018-09-20T18:54:28.873Z,7.93
2018-09-20T18:56:56.146Z,11.07
2018-09-20T18:59:23.501Z,9.30
2018-09-20T19:01:50.708Z,9.00
2018-09-20T19:04:17.944Z,8.67
2018-09-20T19:06:45.137Z,9.50
2018-09-20T19:09:12.404Z,9.20
2018-09-20T19:11:39.645Z,8.87
2018-09-20T19:14:07.190Z,9.47
2018-09-20T19:16:34.806Z,10.80
2018-09-20T19:19:03.590Z,9.00
2018-09-20T19:21:32.173Z,10.13
2018-09-20T19:24:01.232Z,9.40
2018-09-20T19:26:28.747Z,9.20
2018-09-20T19:28:57.408Z,10.87
2018-09-20T19:31:26.571Z,10.70
2018-09-20T19:33:53.833Z,10.43
2018-09-20T19:36:21.181Z,11.13
2018-09-20T19:38:48.492Z,10.77
2018-09-20T19:41:15.707Z,10.83
2018-09-20T19:43:42.988Z,11.60
2018-09-20T19:46:10.257Z,10.83
2018-09-20T19:48:37.506Z,9.80
2018-09-20T19:51:04.816Z,10.03
2018-09-20T19:53:32.245Z,9.67
2018-09-20T19:55:59.527Z,9.90
2018-09-20T19:58:26.827Z,10.43
2018-09-20T20:00:55.612Z,10.10
2018-09-20T20:03:22.816Z,9.07
2018-09-20T20:05:50.040Z,10.40
2018-09-20T20:08:17.220Z,9.63
2018-09-20T20:10:44.679Z,9.10
2018-09-20T20:13:11.959Z,9.60
2018-09-20T20:15:39.171Z,9.30
2018-09-20T20:18:06.383Z,10.17
2018-09-20T20:20:33.710Z,9.90
2018-09-20T20:23:00.913Z,9.43
2018-09-20T20:25:28.125Z,10.40
2018-09-20T20:27:55.304Z,10.77
2018-09-20T20:30:22.641Z,9.77
2018-09-20T20:32:49.887Z,10.13
2018-09-20T20:35:17.189Z,9.77
2018-09-20T20:37:44.445Z,10.30
2018-09-20T20:40:11.648Z,10.07
2018-09-20T20:42:39.064Z,10.97
2018-09-20T20:45:06.477Z,10.00
2018-09-20T20:47:33.730Z,10.20
2018-09-20T20:50:01.004Z,10.07
2018-09-20T20:52:28.292Z,11.50
2018-09-20T20:54:55.694Z,10.80
2018-09-20T20:57:34.816Z,10.53
2018-09-20T21:00:02.361Z,12.20
2018-09-20T21:02:29.607Z,11.20
2018-09-20T21:04:56.927Z,13.77
2018-09-20T21:07:24.171Z,12.87
2018-09-20T21:09:51.374Z,11.93
2018-09-20T21:12:18.677Z,12.10
2018-09-20T21:14:45.910Z,13.50
2018-09-20T21:17:13.244Z,11.87
2018-09-20T21:19:40.566Z,11.30
2018-09-20T21:22:07.761Z,12.37
2018-09-20T21:24:34.996Z,12.60
2018-09-20T21:27:02.257Z,12.63
2018-09-20T21:29:29.515Z,12.90
2018-09-20T21:31:56.831Z,12.57
2018-09-20T21:34:24.096Z,11.83
2018-09-20T21:36:51.346Z,11.53
2018-09-20T21:39:18.577Z,10.97
2018-09-20T21:41:45.752Z,12.50
2018-09-20T21:44:13.179Z,12.67
2018-09-20T21:46:40.553Z,11.73
2018-09-20T21:49:07.720Z,11.73
2018-09-20T21:51:34.898Z,12.50
2018-09-20T21:54:02.719Z,10.50
2018-09-20T21:56:29.908Z,12.20
2018-09-20T21:58:57.563Z,10.53
2018-09-20T22:01:24.790Z,13.40
2018-09-20T22:03:52.700Z,10.97
2018-09-20T22:06:19.939Z,11.67
2018-09-20T22:08:47.141Z,10.27
2018-09-20T22:11:14.326Z,10.60
2018-09-20T22:13:41.562Z,11.70
2018-09-20T22:16:08.861Z,12.20
2018-09-20T22:18:36.128Z,11.87
2018-09-20T22:21:03.821Z,11.70
2018-09-20T22:23:32.033Z,13.40
2018-09-20T22:25:59.257Z,12.40
2018-09-20T22:28:26.465Z,11.20
2018-09-20T22:30:54.293Z,11.53
2018-09-20T22:33:21.673Z,11.60
2018-09-20T22:35:48.960Z,10.20
2018-09-20T22:38:16.148Z,10.90
2018-09-20T22:40:43.401Z,10.03
2018-09-20T22:43:10.622Z,11.20
2018-09-20T22:45:37.790Z,11.83
2018-09-20T22:48:05.013Z,11.63
2018-09-20T22:50:32.217Z,10.67
2018-09-20T22:52:59.388Z,10.80
2018-09-20T22:55:26.590Z,10.90
2018-09-20T22:57:53.850Z,10.87
2018-09-20T23:00:22.970Z,10.43
2018-09-20T23:02:50.830Z,11.00
2018-09-20T23:05:18.095Z,10.40
2018-09-20T23:07:45.326Z,11.60
2018-09-20T23:10:12.561Z,10.47
2018-09-20T23:12:39.803Z,11.20
2018-09-20T23:15:07.069Z,11.03
2018-09-20T23:17:34.240Z,10.37
2018-09-20T23:20:01.598Z,9.60
2018-09-20T23:22:28.809Z,12.10
2018-09-20T23:24:56.033Z,11.30
2018-09-20T23:27:23.300Z,10.87
2018-09-20T23:29:50.554Z,10.70
2018-09-20T23:32:17.787Z,10.83
2018-09-20T23:34:45.000Z,11.43
2018-09-20T23:37:12.147Z,10.70
2018-09-20T23:39:39.379Z,10.90
2018-09-20T23:42:06.601Z,10.10
2018-09-20T23:44:33.826Z,10.47
2018-09-20T23:47:01.012Z,11.17
2018-09-20T23:49:28.236Z,10.83
2018-09-20T23:51:55.444Z,10.70
2018-09-20T23:54:22.679Z,10.13
2018-09-20T23:56:49.984Z,11.13
2018-09-20T23:59:17.265Z,10.67
